sensor_id;sensor_type;location;lat;lon;timestamp;temperature;humidity
15364;DHT22;7781;49.690;6.472;2024-01-25T00:01:03;8.10;99.90
15364;DHT22;7781;49.690;6.472;2024-01-25T00:03:34;8.10;99.90
15364;DHT22;7781;49.690;6.472;2024-01-25T00:06:04;8.20;99.90
15364;DHT22;7781;49.690;6.472;2024-01-25T00:08:32;8.10;99.90
15364;DHT22;7781;49.690;6.472;2024-01-25T00:11:02;8.20;99.90
15364;DHT22;7781;49.690;6.472;2024-01-25T00:13:31;8.30;99.90
15364;DHT22;7781;49.690;6.472;2024-01-25T00:16:01;8.30;60.70
15364;DHT22;7781;49.690;6.472;2024-01-25T00:18:30;8.30;40.50
15364;DHT22;7781;49.690;6.472;2024-01-25T00:21:00;8.30;30.90
15364;DHT22;7781;49.690;6.472;2024-01-25T00:23:29;8.40;18.90
15364;DHT22;7781;49.690;6.472;2024-01-25T00:25:58;8.40;1.00
15364;DHT22;7781;49.690;6.472;2024-01-25T00:28:27;8.40;1.00
15364;DHT22;7781;49.690;6.472;2024-01-25T00:30:56;8.40;1.00
15364;DHT22;7781;49.690;6.472;2024-01-25T00:33:28;8.40;1.00
15364;DHT22;7781;49.690;6.472;2024-01-25T00:35:56;8.50;1.00
15364;DHT22;7781;49.690;6.472;2024-01-25T00:38:36;8.50;1.00
15364;DHT22;7781;49.690;6.472;2024-01-25T00:41:08;8.60;1.00
15364;DHT22;7781;49.690;6.472;2024-01-25T00:43:38;8.60;1.00
15364;DHT22;7781;49.690;6.472;2024-01-25T00:46:08;8.60;1.00
15364;DHT22;7781;49.690;6.472;2024-01-25T00:48:37;8.60;1.00
15364;DHT22;7781;49.690;6.472;2024-01-25T00:51:08;8.60;99.90
15364;DHT22;7781;49.690;6.472;2024-01-25T00:53:44;8.60;99.90
15364;DHT22;7781;49.690;6.472;2024-01-25T00:56:14;8.60;99.90
15364;DHT22;7781;49.690;6.472;2024-01-25T00:58:44;8.60;99.90
15364;DHT22;7781;49.690;6.472;2024-01-25T01:01:14;8.60;99.90
15364;DHT22;7781;49.690;6.472;2024-01-25T01:03:43;8.60;99.90
15364;DHT22;7781;49.690;6.472;2024-01-25T01:06:13;8.60;99.90
15364;DHT22;7781;49.690;6.472;2024-01-25T01:08:44;8.60;99.90
15364;DHT22;7781;49.690;6.472;2024-01-25T01:11:13;8.50;99.90
15364;DHT22;7781;49.690;6.472;2024-01-25T01:13:42;8.50;99.90
15364;DHT22;7781;49.690;6.472;2024-01-25T01:16:10;8.50;99.90
15364;DHT22;7781;49.690;6.472;2024-01-25T01:18:39;8.40;99.90
15364;DHT22;7781;49.690;6.472;2024-01-25T01:21:08;8.30;99.90
15364;DHT22;7781;49.690;6.472;2024-01-25T01:23:37;8.30;1.00
15364;DHT22;7781;49.690;6.472;2024-01-25T01:26:07;8.20;1.00
15364;DHT22;7781;49.690;6.472;2024-01-25T01:28:36;8.20;1.00
15364;DHT22;7781;49.690;6.472;2024-01-25T01:31:04;8.10;1.00
15364;DHT22;7781;49.690;6.472;2024-01-25T01:33:33;7.90;99.90
15364;DHT22;7781;49.690;6.472;2024-01-25T01:36:02;7.60;1.00
15364;DHT22;7781;49.690;6.472;2024-01-25T01:38:33;7.40;1.00
15364;DHT22;7781;49.690;6.472;2024-01-25T01:41:01;7.20;1.00
15364;DHT22;7781;49.690;6.472;2024-01-25T01:43:34;7.00;99.90
15364;DHT22;7781;49.690;6.472;2024-01-25T01:46:09;6.90;71.80
15364;DHT22;7781;49.690;6.472;2024-01-25T01:48:39;6.80;99.90
15364;DHT22;7781;49.690;6.472;2024-01-25T01:51:09;6.70;99.90
15364;DHT22;7781;49.690;6.472;2024-01-25T01:53:38;6.70;99.90
15364;DHT22;7781;49.690;6.472;2024-01-25T01:56:09;6.80;99.90
15364;DHT22;7781;49.690;6.472;2024-01-25T01:58:40;6.80;99.90
15364;DHT22;7781;49.690;6.472;2024-01-25T02:01:14;6.70;99.90
15364;DHT22;7781;49.690;6.472;2024-01-25T02:03:43;6.60;99.90
15364;DHT22;7781;49.690;6.472;2024-01-25T02:06:12;6.50;99.90
15364;DHT22;7781;49.690;6.472;2024-01-25T02:08:43;6.40;99.90
15364;DHT22;7781;49.690;6.472;2024-01-25T02:11:13;6.20;99.90
15364;DHT22;7781;49.690;6.472;2024-01-25T02:13:44;6.10;99.90
15364;DHT22;7781;49.690;6.472;2024-01-25T02:16:12;6.30;99.90
15364;DHT22;7781;49.690;6.472;2024-01-25T02:18:44;6.30;99.90
15364;DHT22;7781;49.690;6.472;2024-01-25T02:21:13;6.30;99.90
15364;DHT22;7781;49.690;6.472;2024-01-25T02:23:43;6.30;99.90
15364;DHT22;7781;49.690;6.472;2024-01-25T02:26:12;6.20;99.90
15364;DHT22;7781;49.690;6.472;2024-01-25T02:28:43;6.30;99.90
15364;DHT22;7781;49.690;6.472;2024-01-25T02:31:12;6.30;99.90
15364;DHT22;7781;49.690;6.472;2024-01-25T02:33:41;6.10;99.90
15364;DHT22;7781;49.690;6.472;2024-01-25T02:36:10;5.90;99.90
15364;DHT22;7781;49.690;6.472;2024-01-25T02:38:39;5.80;99.90
15364;DHT22;7781;49.690;6.472;2024-01-25T02:41:10;5.70;99.90
15364;DHT22;7781;49.690;6.472;2024-01-25T02:43:39;5.60;99.90
15364;DHT22;7781;49.690;6.472;2024-01-25T02:46:08;5.60;99.90
15364;DHT22;7781;49.690;6.472;2024-01-25T02:48:37;5.70;99.90
15364;DHT22;7781;49.690;6.472;2024-01-25T02:51:06;5.80;99.90
15364;DHT22;7781;49.690;6.472;2024-01-25T02:53:35;6.00;99.90
15364;DHT22;7781;49.690;6.472;2024-01-25T02:56:05;6.10;99.90
15364;DHT22;7781;49.690;6.472;2024-01-25T02:58:35;6.10;99.90
15364;DHT22;7781;49.690;6.472;2024-01-25T03:01:04;6.10;99.90
15364;DHT22;7781;49.690;6.472;2024-01-25T03:03:33;5.90;99.90
15364;DHT22;7781;49.690;6.472;2024-01-25T03:06:02;5.80;99.90
15364;DHT22;7781;49.690;6.472;2024-01-25T03:08:31;5.80;99.90
15364;DHT22;7781;49.690;6.472;2024-01-25T03:10:59;5.80;99.90
15364;DHT22;7781;49.690;6.472;2024-01-25T03:13:31;5.70;99.90
15364;DHT22;7781;49.690;6.472;2024-01-25T03:16:04;5.60;99.90
15364;DHT22;7781;49.690;6.472;2024-01-25T03:18:33;5.60;99.90
15364;DHT22;7781;49.690;6.472;2024-01-25T03:21:03;5.60;99.90
15364;DHT22;7781;49.690;6.472;2024-01-25T03:23:32;5.40;99.90
15364;DHT22;7781;49.690;6.472;2024-01-25T03:26:02;5.40;99.90
15364;DHT22;7781;49.690;6.472;2024-01-25T03:28:31;5.30;99.90
15364;DHT22;7781;49.690;6.472;2024-01-25T03:31:00;5.10;99.90
15364;DHT22;7781;49.690;6.472;2024-01-25T03:33:30;4.90;99.90
15364;DHT22;7781;49.690;6.472;2024-01-25T03:36:01;4.80;99.90
15364;DHT22;7781;49.690;6.472;2024-01-25T03:38:32;4.60;99.90
15364;DHT22;7781;49.690;6.472;2024-01-25T03:41:01;4.60;99.90
15364;DHT22;7781;49.690;6.472;2024-01-25T03:43:29;4.70;99.90
15364;DHT22;7781;49.690;6.472;2024-01-25T03:46:09;4.60;99.90
15364;DHT22;7781;49.690;6.472;2024-01-25T03:48:39;4.50;99.90
15364;DHT22;7781;49.690;6.472;2024-01-25T03:51:07;4.50;99.90
15364;DHT22;7781;49.690;6.472;2024-01-25T03:53:36;4.50;99.90
15364;DHT22;7781;49.690;6.472;2024-01-25T03:56:11;4.40;99.90
15364;DHT22;7781;49.690;6.472;2024-01-25T03:58:40;4.30;99.90
15364;DHT22;7781;49.690;6.472;2024-01-25T04:01:08;4.30;99.90
15364;DHT22;7781;49.690;6.472;2024-01-25T04:03:39;4.30;99.90
15364;DHT22;7781;49.690;6.472;2024-01-25T04:06:09;4.20;99.90
15364;DHT22;7781;49.690;6.472;2024-01-25T04:08:38;4.10;99.90
15364;DHT22;7781;49.690;6.472;2024-01-25T04:11:06;4.00;99.90
15364;DHT22;7781;49.690;6.472;2024-01-25T04:13:36;4.00;99.90
15364;DHT22;7781;49.690;6.472;2024-01-25T04:16:05;4.10;99.90
15364;DHT22;7781;49.690;6.472;2024-01-25T04:18:35;4.00;99.90
15364;DHT22;7781;49.690;6.472;2024-01-25T04:21:06;4.00;99.90
15364;DHT22;7781;49.690;6.472;2024-01-25T04:23:36;3.90;99.90
15364;DHT22;7781;49.690;6.472;2024-01-25T04:26:05;3.90;99.90
15364;DHT22;7781;49.690;6.472;2024-01-25T04:28:34;4.00;99.90
15364;DHT22;7781;49.690;6.472;2024-01-25T04:31:03;4.00;99.90
15364;DHT22;7781;49.690;6.472;2024-01-25T04:33:31;3.90;99.90
15364;DHT22;7781;49.690;6.472;2024-01-25T04:36:00;3.80;99.90
15364;DHT22;7781;49.690;6.472;2024-01-25T04:38:30;4.00;99.90
15364;DHT22;7781;49.690;6.472;2024-01-25T04:40:59;4.00;99.90
15364;DHT22;7781;49.690;6.472;2024-01-25T04:43:34;4.00;99.90
15364;DHT22;7781;49.690;6.472;2024-01-25T04:46:04;3.80;99.90
15364;DHT22;7781;49.690;6.472;2024-01-25T04:48:33;3.80;99.90
15364;DHT22;7781;49.690;6.472;2024-01-25T04:51:03;3.90;99.90
15364;DHT22;7781;49.690;6.472;2024-01-25T04:53:33;3.80;99.90
15364;DHT22;7781;49.690;6.472;2024-01-25T04:56:01;3.60;99.90
15364;DHT22;7781;49.690;6.472;2024-01-25T04:58:30;3.40;99.90
15364;DHT22;7781;49.690;6.472;2024-01-25T05:00:58;3.20;99.90
15364;DHT22;7781;49.690;6.472;2024-01-25T05:03:27;3.30;99.90
15364;DHT22;7781;49.690;6.472;2024-01-25T05:05:55;3.30;99.90
15364;DHT22;7781;49.690;6.472;2024-01-25T05:08:27;3.50;99.90
15364;DHT22;7781;49.690;6.472;2024-01-25T05:10:56;3.50;99.90
15364;DHT22;7781;49.690;6.472;2024-01-25T05:13:26;3.60;99.90
15364;DHT22;7781;49.690;6.472;2024-01-25T05:15:54;3.70;99.90
15364;DHT22;7781;49.690;6.472;2024-01-25T05:18:23;3.80;99.90
15364;DHT22;7781;49.690;6.472;2024-01-25T05:20:51;3.90;99.90
15364;DHT22;7781;49.690;6.472;2024-01-25T05:23:22;4.00;99.90
15364;DHT22;7781;49.690;6.472;2024-01-25T05:25:51;4.10;99.90
15364;DHT22;7781;49.690;6.472;2024-01-25T05:28:21;4.00;99.90
15364;DHT22;7781;49.690;6.472;2024-01-25T05:30:51;3.90;99.90
15364;DHT22;7781;49.690;6.472;2024-01-25T05:33:20;3.70;99.90
15364;DHT22;7781;49.690;6.472;2024-01-25T05:35:49;3.60;99.90
15364;DHT22;7781;49.690;6.472;2024-01-25T05:38:18;3.40;99.90
15364;DHT22;7781;49.690;6.472;2024-01-25T05:40:46;3.40;99.90
15364;DHT22;7781;49.690;6.472;2024-01-25T05:43:16;3.40;99.90
15364;DHT22;7781;49.690;6.472;2024-01-25T05:45:47;3.40;99.90
15364;DHT22;7781;49.690;6.472;2024-01-25T05:48:16;3.50;99.90
15364;DHT22;7781;49.690;6.472;2024-01-25T05:50:45;3.60;99.90
15364;DHT22;7781;49.690;6.472;2024-01-25T05:53:14;3.60;99.90
15364;DHT22;7781;49.690;6.472;2024-01-25T05:55:46;3.60;99.90
15364;DHT22;7781;49.690;6.472;2024-01-25T05:58:14;3.60;99.90
15364;DHT22;7781;49.690;6.472;2024-01-25T06:00:43;3.70;99.90
15364;DHT22;7781;49.690;6.472;2024-01-25T06:03:13;3.90;99.90
15364;DHT22;7781;49.690;6.472;2024-01-25T06:05:42;3.90;99.90
15364;DHT22;7781;49.690;6.472;2024-01-25T06:08:11;4.00;99.90
15364;DHT22;7781;49.690;6.472;2024-01-25T06:10:39;3.90;99.90
15364;DHT22;7781;49.690;6.472;2024-01-25T06:13:08;4.00;99.90
15364;DHT22;7781;49.690;6.472;2024-01-25T06:15:37;4.00;99.90
15364;DHT22;7781;49.690;6.472;2024-01-25T06:18:07;3.90;99.90
15364;DHT22;7781;49.690;6.472;2024-01-25T06:20:37;3.80;99.90
15364;DHT22;7781;49.690;6.472;2024-01-25T06:23:06;3.60;99.90
15364;DHT22;7781;49.690;6.472;2024-01-25T06:25:34;3.40;99.90
15364;DHT22;7781;49.690;6.472;2024-01-25T06:28:03;3.30;99.90
15364;DHT22;7781;49.690;6.472;2024-01-25T06:30:32;3.00;99.90
15364;DHT22;7781;49.690;6.472;2024-01-25T06:33:01;2.80;99.90
15364;DHT22;7781;49.690;6.472;2024-01-25T06:35:30;2.70;99.90
15364;DHT22;7781;49.690;6.472;2024-01-25T06:38:02;2.50;99.90
15364;DHT22;7781;49.690;6.472;2024-01-25T06:40:30;2.40;99.90
15364;DHT22;7781;49.690;6.472;2024-01-25T06:43:08;2.40;99.90
15364;DHT22;7781;49.690;6.472;2024-01-25T06:45:37;2.30;99.90
15364;DHT22;7781;49.690;6.472;2024-01-25T06:48:08;2.30;99.90
15364;DHT22;7781;49.690;6.472;2024-01-25T06:50:37;2.30;99.90
15364;DHT22;7781;49.690;6.472;2024-01-25T06:53:08;2.20;99.90
15364;DHT22;7781;49.690;6.472;2024-01-25T06:55:37;2.20;99.90
15364;DHT22;7781;49.690;6.472;2024-01-25T06:58:08;2.20;99.90
15364;DHT22;7781;49.690;6.472;2024-01-25T07:00:38;2.20;99.90
15364;DHT22;7781;49.690;6.472;2024-01-25T07:03:10;2.30;99.90
15364;DHT22;7781;49.690;6.472;2024-01-25T07:05:39;2.40;99.90
15364;DHT22;7781;49.690;6.472;2024-01-25T07:08:09;2.50;99.90
15364;DHT22;7781;49.690;6.472;2024-01-25T07:10:41;2.50;99.90
15364;DHT22;7781;49.690;6.472;2024-01-25T07:13:11;2.50;99.90
15364;DHT22;7781;49.690;6.472;2024-01-25T07:15:39;2.50;99.90
15364;DHT22;7781;49.690;6.472;2024-01-25T07:18:10;2.60;99.90
15364;DHT22;7781;49.690;6.472;2024-01-25T07:20:39;2.60;99.90
15364;DHT22;7781;49.690;6.472;2024-01-25T07:23:08;2.70;99.90
15364;DHT22;7781;49.690;6.472;2024-01-25T07:25:42;2.80;99.90
15364;DHT22;7781;49.690;6.472;2024-01-25T07:28:13;2.90;99.90
15364;DHT22;7781;49.690;6.472;2024-01-25T07:30:43;3.00;99.90
15364;DHT22;7781;49.690;6.472;2024-01-25T07:33:12;3.10;99.90
15364;DHT22;7781;49.690;6.472;2024-01-25T07:35:41;3.00;99.90
15364;DHT22;7781;49.690;6.472;2024-01-25T07:38:14;3.00;99.90
15364;DHT22;7781;49.690;6.472;2024-01-25T07:40:43;3.00;99.90
15364;DHT22;7781;49.690;6.472;2024-01-25T07:43:13;2.90;99.90
15364;DHT22;7781;49.690;6.472;2024-01-25T07:45:42;2.80;99.90
15364;DHT22;7781;49.690;6.472;2024-01-25T07:48:12;2.70;99.90
15364;DHT22;7781;49.690;6.472;2024-01-25T07:50:43;2.60;99.90
15364;DHT22;7781;49.690;6.472;2024-01-25T07:53:17;2.50;99.90
15364;DHT22;7781;49.690;6.472;2024-01-25T07:55:45;2.50;99.90
15364;DHT22;7781;49.690;6.472;2024-01-25T07:58:15;2.60;99.90
15364;DHT22;7781;49.690;6.472;2024-01-25T08:00:44;2.60;99.90
15364;DHT22;7781;49.690;6.472;2024-01-25T08:03:14;2.70;99.90
15364;DHT22;7781;49.690;6.472;2024-01-25T08:05:45;2.70;99.90
15364;DHT22;7781;49.690;6.472;2024-01-25T08:08:19;2.90;99.90
15364;DHT22;7781;49.690;6.472;2024-01-25T08:10:48;3.00;99.90
15364;DHT22;7781;49.690;6.472;2024-01-25T08:13:17;3.10;99.90
15364;DHT22;7781;49.690;6.472;2024-01-25T08:15:47;3.30;99.90
15364;DHT22;7781;49.690;6.472;2024-01-25T08:18:16;3.40;99.90
15364;DHT22;7781;49.690;6.472;2024-01-25T08:20:50;3.40;99.90
15364;DHT22;7781;49.690;6.472;2024-01-25T08:23:21;3.40;99.90
15364;DHT22;7781;49.690;6.472;2024-01-25T08:25:49;3.30;99.90
15364;DHT22;7781;49.690;6.472;2024-01-25T08:28:18;3.30;99.90
15364;DHT22;7781;49.690;6.472;2024-01-25T08:30:50;3.40;99.90
15364;DHT22;7781;49.690;6.472;2024-01-25T08:33:19;3.50;99.90
15364;DHT22;7781;49.690;6.472;2024-01-25T08:35:49;3.50;99.90
15364;DHT22;7781;49.690;6.472;2024-01-25T08:38:20;3.50;99.90
15364;DHT22;7781;49.690;6.472;2024-01-25T08:40:49;3.50;99.90
15364;DHT22;7781;49.690;6.472;2024-01-25T08:43:18;3.60;99.90
15364;DHT22;7781;49.690;6.472;2024-01-25T08:45:47;3.60;99.90
15364;DHT22;7781;49.690;6.472;2024-01-25T08:48:15;3.60;99.90
15364;DHT22;7781;49.690;6.472;2024-01-25T08:50:45;3.70;99.90
15364;DHT22;7781;49.690;6.472;2024-01-25T08:53:14;3.70;99.90
15364;DHT22;7781;49.690;6.472;2024-01-25T08:55:44;3.80;99.90
15364;DHT22;7781;49.690;6.472;2024-01-25T08:58:13;3.90;99.90
15364;DHT22;7781;49.690;6.472;2024-01-25T09:00:43;4.00;99.90
15364;DHT22;7781;49.690;6.472;2024-01-25T09:03:13;4.00;99.90
15364;DHT22;7781;49.690;6.472;2024-01-25T09:05:43;4.00;99.90
15364;DHT22;7781;49.690;6.472;2024-01-25T09:08:14;4.00;99.90
15364;DHT22;7781;49.690;6.472;2024-01-25T09:10:45;4.10;99.90
15364;DHT22;7781;49.690;6.472;2024-01-25T09:13:15;4.10;99.90
15364;DHT22;7781;49.690;6.472;2024-01-25T09:15:44;4.20;99.90
15364;DHT22;7781;49.690;6.472;2024-01-25T09:18:14;4.30;99.90
15364;DHT22;7781;49.690;6.472;2024-01-25T09:20:43;4.30;99.90
15364;DHT22;7781;49.690;6.472;2024-01-25T09:23:15;4.40;99.90
15364;DHT22;7781;49.690;6.472;2024-01-25T09:25:46;4.50;99.90
15364;DHT22;7781;49.690;6.472;2024-01-25T09:28:15;4.60;99.90
15364;DHT22;7781;49.690;6.472;2024-01-25T09:30:45;4.70;99.90
15364;DHT22;7781;49.690;6.472;2024-01-25T09:33:14;4.80;99.90
15364;DHT22;7781;49.690;6.472;2024-01-25T09:35:47;4.90;99.90
15364;DHT22;7781;49.690;6.472;2024-01-25T09:38:17;5.00;99.90
15364;DHT22;7781;49.690;6.472;2024-01-25T09:40:49;5.20;99.90
15364;DHT22;7781;49.690;6.472;2024-01-25T09:43:20;5.30;99.90
15364;DHT22;7781;49.690;6.472;2024-01-25T09:45:53;5.50;99.90
15364;DHT22;7781;49.690;6.472;2024-01-25T09:48:25;5.60;99.90
15364;DHT22;7781;49.690;6.472;2024-01-25T09:50:55;5.70;99.90
15364;DHT22;7781;49.690;6.472;2024-01-25T09:53:25;5.80;99.90
15364;DHT22;7781;49.690;6.472;2024-01-25T09:56:00;5.90;99.90
15364;DHT22;7781;49.690;6.472;2024-01-25T09:58:36;5.90;99.90
15364;DHT22;7781;49.690;6.472;2024-01-25T10:01:08;6.00;99.90
15364;DHT22;7781;49.690;6.472;2024-01-25T10:03:39;6.00;99.90
15364;DHT22;7781;49.690;6.472;2024-01-25T10:06:10;6.10;99.90
15364;DHT22;7781;49.690;6.472;2024-01-25T10:08:40;6.20;99.90
15364;DHT22;7781;49.690;6.472;2024-01-25T10:11:13;6.20;99.90
15364;DHT22;7781;49.690;6.472;2024-01-25T10:13:42;6.30;99.90
15364;DHT22;7781;49.690;6.472;2024-01-25T10:16:12;6.40;99.90
15364;DHT22;7781;49.690;6.472;2024-01-25T10:18:43;6.60;99.90
15364;DHT22;7781;49.690;6.472;2024-01-25T10:21:13;6.70;99.90
15364;DHT22;7781;49.690;6.472;2024-01-25T10:23:44;6.90;99.90
15364;DHT22;7781;49.690;6.472;2024-01-25T10:26:17;7.00;99.90
15364;DHT22;7781;49.690;6.472;2024-01-25T10:28:51;7.20;99.90
15364;DHT22;7781;49.690;6.472;2024-01-25T10:31:30;7.40;99.90
15364;DHT22;7781;49.690;6.472;2024-01-25T10:34:00;7.50;99.90
15364;DHT22;7781;49.690;6.472;2024-01-25T10:36:31;7.60;99.90
15364;DHT22;7781;49.690;6.472;2024-01-25T10:39:03;7.80;99.90
15364;DHT22;7781;49.690;6.472;2024-01-25T10:41:34;7.90;99.90
15364;DHT22;7781;49.690;6.472;2024-01-25T10:44:04;8.10;99.90
15364;DHT22;7781;49.690;6.472;2024-01-25T10:46:34;8.30;99.90
15364;DHT22;7781;49.690;6.472;2024-01-25T10:49:05;8.50;99.90
15364;DHT22;7781;49.690;6.472;2024-01-25T10:51:38;8.60;99.90
15364;DHT22;7781;49.690;6.472;2024-01-25T10:54:08;8.80;99.90
15364;DHT22;7781;49.690;6.472;2024-01-25T10:56:41;8.90;99.90
15364;DHT22;7781;49.690;6.472;2024-01-25T10:59:10;8.90;99.90
15364;DHT22;7781;49.690;6.472;2024-01-25T11:01:43;9.00;99.90
15364;DHT22;7781;49.690;6.472;2024-01-25T11:04:13;9.10;99.90
15364;DHT22;7781;49.690;6.472;2024-01-25T11:06:45;9.20;99.90
15364;DHT22;7781;49.690;6.472;2024-01-25T11:09:18;9.20;99.90
15364;DHT22;7781;49.690;6.472;2024-01-25T11:11:50;9.20;99.90
15364;DHT22;7781;49.690;6.472;2024-01-25T11:14:25;9.10;99.90
15364;DHT22;7781;49.690;6.472;2024-01-25T11:16:54;9.10;99.90
15364;DHT22;7781;49.690;6.472;2024-01-25T11:19:23;9.10;99.90
15364;DHT22;7781;49.690;6.472;2024-01-25T11:21:54;9.20;99.90
15364;DHT22;7781;49.690;6.472;2024-01-25T11:24:24;9.30;99.90
15364;DHT22;7781;49.690;6.472;2024-01-25T11:26:56;9.30;99.90
15364;DHT22;7781;49.690;6.472;2024-01-25T11:29:25;9.30;99.90
15364;DHT22;7781;49.690;6.472;2024-01-25T11:31:56;9.30;99.90
15364;DHT22;7781;49.690;6.472;2024-01-25T11:34:24;9.30;99.90
15364;DHT22;7781;49.690;6.472;2024-01-25T11:36:54;9.30;99.90
15364;DHT22;7781;49.690;6.472;2024-01-25T11:39:25;9.30;99.90
15364;DHT22;7781;49.690;6.472;2024-01-25T11:41:56;9.40;99.90
15364;DHT22;7781;49.690;6.472;2024-01-25T11:44:25;9.40;99.90
15364;DHT22;7781;49.690;6.472;2024-01-25T11:46:54;9.50;99.90
15364;DHT22;7781;49.690;6.472;2024-01-25T11:49:24;9.50;99.90
15364;DHT22;7781;49.690;6.472;2024-01-25T11:51:53;9.40;99.90
15364;DHT22;7781;49.690;6.472;2024-01-25T11:54:22;9.40;99.90
15364;DHT22;7781;49.690;6.472;2024-01-25T11:56:51;9.30;99.90
15364;DHT22;7781;49.690;6.472;2024-01-25T11:59:22;9.30;99.90
15364;DHT22;7781;49.690;6.472;2024-01-25T12:01:51;9.30;99.90
15364;DHT22;7781;49.690;6.472;2024-01-25T12:04:20;9.30;99.90
15364;DHT22;7781;49.690;6.472;2024-01-25T12:06:50;9.30;99.90
15364;DHT22;7781;49.690;6.472;2024-01-25T12:09:19;9.40;99.90
15364;DHT22;7781;49.690;6.472;2024-01-25T12:11:50;9.40;99.90
15364;DHT22;7781;49.690;6.472;2024-01-25T12:14:21;9.40;99.90
15364;DHT22;7781;49.690;6.472;2024-01-25T12:16:52;9.30;99.90
15364;DHT22;7781;49.690;6.472;2024-01-25T12:19:23;9.30;99.90
15364;DHT22;7781;49.690;6.472;2024-01-25T12:21:52;9.30;99.90
15364;DHT22;7781;49.690;6.472;2024-01-25T12:24:22;9.30;99.90
15364;DHT22;7781;49.690;6.472;2024-01-25T12:26:50;9.20;99.90
15364;DHT22;7781;49.690;6.472;2024-01-25T12:29:21;9.30;99.90
15364;DHT22;7781;49.690;6.472;2024-01-25T12:31:50;9.30;99.90
15364;DHT22;7781;49.690;6.472;2024-01-25T12:34:19;9.30;99.90
15364;DHT22;7781;49.690;6.472;2024-01-25T12:36:48;9.40;99.90
15364;DHT22;7781;49.690;6.472;2024-01-25T12:39:17;9.40;99.90
15364;DHT22;7781;49.690;6.472;2024-01-25T12:41:47;9.40;99.90
15364;DHT22;7781;49.690;6.472;2024-01-25T12:44:18;9.40;99.90
15364;DHT22;7781;49.690;6.472;2024-01-25T12:46:48;9.40;99.90
15364;DHT22;7781;49.690;6.472;2024-01-25T12:49:18;9.40;99.90
15364;DHT22;7781;49.690;6.472;2024-01-25T12:51:49;9.40;99.90
15364;DHT22;7781;49.690;6.472;2024-01-25T12:54:20;9.30;99.90
15364;DHT22;7781;49.690;6.472;2024-01-25T12:56:52;9.40;99.90
15364;DHT22;7781;49.690;6.472;2024-01-25T12:59:22;9.40;99.90
15364;DHT22;7781;49.690;6.472;2024-01-25T13:01:52;9.40;99.90
15364;DHT22;7781;49.690;6.472;2024-01-25T13:04:23;9.40;99.90
15364;DHT22;7781;49.690;6.472;2024-01-25T13:06:54;9.50;99.90
15364;DHT22;7781;49.690;6.472;2024-01-25T13:09:23;9.50;99.90
15364;DHT22;7781;49.690;6.472;2024-01-25T13:11:55;9.50;99.90
15364;DHT22;7781;49.690;6.472;2024-01-25T13:14:24;9.50;99.90
15364;DHT22;7781;49.690;6.472;2024-01-25T13:16:54;9.50;99.90
15364;DHT22;7781;49.690;6.472;2024-01-25T13:19:23;9.50;99.90
15364;DHT22;7781;49.690;6.472;2024-01-25T13:21:51;9.50;99.90
15364;DHT22;7781;49.690;6.472;2024-01-25T13:24:20;9.50;99.90
15364;DHT22;7781;49.690;6.472;2024-01-25T13:26:50;9.60;99.90
15364;DHT22;7781;49.690;6.472;2024-01-25T13:29:19;9.60;99.90
15364;DHT22;7781;49.690;6.472;2024-01-25T13:31:48;9.70;99.90
15364;DHT22;7781;49.690;6.472;2024-01-25T13:34:18;9.70;99.90
15364;DHT22;7781;49.690;6.472;2024-01-25T13:36:47;9.60;99.90
15364;DHT22;7781;49.690;6.472;2024-01-25T13:39:17;9.60;99.90
15364;DHT22;7781;49.690;6.472;2024-01-25T13:41:49;9.60;99.90
15364;DHT22;7781;49.690;6.472;2024-01-25T13:44:19;9.60;99.90
15364;DHT22;7781;49.690;6.472;2024-01-25T13:46:48;9.50;99.90
15364;DHT22;7781;49.690;6.472;2024-01-25T13:49:19;9.60;99.90
15364;DHT22;7781;49.690;6.472;2024-01-25T13:51:48;9.60;99.90
15364;DHT22;7781;49.690;6.472;2024-01-25T13:54:18;9.60;99.90
15364;DHT22;7781;49.690;6.472;2024-01-25T13:56:47;9.60;99.90
15364;DHT22;7781;49.690;6.472;2024-01-25T13:59:15;9.60;99.90
15364;DHT22;7781;49.690;6.472;2024-01-25T14:01:44;9.60;99.90
15364;DHT22;7781;49.690;6.472;2024-01-25T14:04:13;9.50;99.90
15364;DHT22;7781;49.690;6.472;2024-01-25T14:06:44;9.50;99.90
15364;DHT22;7781;49.690;6.472;2024-01-25T14:09:13;9.40;99.90
15364;DHT22;7781;49.690;6.472;2024-01-25T14:11:42;9.40;99.90
15364;DHT22;7781;49.690;6.472;2024-01-25T14:14:12;9.40;99.90
15364;DHT22;7781;49.690;6.472;2024-01-25T14:16:41;9.40;99.90
15364;DHT22;7781;49.690;6.472;2024-01-25T14:19:09;9.30;99.90
15364;DHT22;7781;49.690;6.472;2024-01-25T14:21:41;9.30;99.90
15364;DHT22;7781;49.690;6.472;2024-01-25T14:24:14;9.30;99.90
15364;DHT22;7781;49.690;6.472;2024-01-25T14:26:44;9.30;99.90
15364;DHT22;7781;49.690;6.472;2024-01-25T14:29:13;9.20;99.90
15364;DHT22;7781;49.690;6.472;2024-01-25T14:31:42;9.20;99.90
15364;DHT22;7781;49.690;6.472;2024-01-25T14:34:11;9.20;99.90
15364;DHT22;7781;49.690;6.472;2024-01-25T14:36:40;9.20;99.90
15364;DHT22;7781;49.690;6.472;2024-01-25T14:39:09;9.20;99.90
15364;DHT22;7781;49.690;6.472;2024-01-25T14:41:41;9.10;99.90
15364;DHT22;7781;49.690;6.472;2024-01-25T14:44:10;9.10;99.90
15364;DHT22;7781;49.690;6.472;2024-01-25T14:46:39;9.00;99.90
15364;DHT22;7781;49.690;6.472;2024-01-25T14:49:07;9.10;99.90
15364;DHT22;7781;49.690;6.472;2024-01-25T14:51:36;9.10;99.90
15364;DHT22;7781;49.690;6.472;2024-01-25T14:54:05;9.00;99.90
15364;DHT22;7781;49.690;6.472;2024-01-25T14:56:37;8.90;99.90
15364;DHT22;7781;49.690;6.472;2024-01-25T14:59:07;8.90;99.90
15364;DHT22;7781;49.690;6.472;2024-01-25T15:01:35;8.90;99.90
15364;DHT22;7781;49.690;6.472;2024-01-25T15:04:04;9.00;99.90
15364;DHT22;7781;49.690;6.472;2024-01-25T15:06:34;9.00;99.90
15364;DHT22;7781;49.690;6.472;2024-01-25T15:09:04;9.00;99.90
15364;DHT22;7781;49.690;6.472;2024-01-25T15:11:34;9.00;99.90
15364;DHT22;7781;49.690;6.472;2024-01-25T15:14:03;8.90;99.90
15364;DHT22;7781;49.690;6.472;2024-01-25T15:16:37;9.00;99.90
15364;DHT22;7781;49.690;6.472;2024-01-25T15:19:06;8.90;99.90
15364;DHT22;7781;49.690;6.472;2024-01-25T15:21:36;8.90;99.90
15364;DHT22;7781;49.690;6.472;2024-01-25T15:24:05;8.90;99.90
15364;DHT22;7781;49.690;6.472;2024-01-25T15:26:34;8.90;99.90
15364;DHT22;7781;49.690;6.472;2024-01-25T15:29:04;8.90;99.90
15364;DHT22;7781;49.690;6.472;2024-01-25T15:31:32;9.00;99.90
15364;DHT22;7781;49.690;6.472;2024-01-25T15:34:03;9.00;99.90
15364;DHT22;7781;49.690;6.472;2024-01-25T15:36:32;8.90;99.90
15364;DHT22;7781;49.690;6.472;2024-01-25T15:39:02;8.90;99.90
15364;DHT22;7781;49.690;6.472;2024-01-25T15:41:31;8.90;99.90
15364;DHT22;7781;49.690;6.472;2024-01-25T15:43:59;8.90;99.90
15364;DHT22;7781;49.690;6.472;2024-01-25T15:46:28;8.80;99.90
15364;DHT22;7781;49.690;6.472;2024-01-25T15:48:59;8.80;99.90
15364;DHT22;7781;49.690;6.472;2024-01-25T15:51:30;8.80;99.90
15364;DHT22;7781;49.690;6.472;2024-01-25T15:53:58;8.80;99.90
15364;DHT22;7781;49.690;6.472;2024-01-25T15:56:27;8.80;99.90
15364;DHT22;7781;49.690;6.472;2024-01-25T15:58:56;8.80;99.90
15364;DHT22;7781;49.690;6.472;2024-01-25T16:01:25;8.70;99.90
15364;DHT22;7781;49.690;6.472;2024-01-25T16:03:56;8.80;99.90
15364;DHT22;7781;49.690;6.472;2024-01-25T16:06:27;8.70;99.90
15364;DHT22;7781;49.690;6.472;2024-01-25T16:09:00;8.70;99.90
15364;DHT22;7781;49.690;6.472;2024-01-25T16:11:29;8.70;99.90
15364;DHT22;7781;49.690;6.472;2024-01-25T16:13:59;8.70;99.90
15364;DHT22;7781;49.690;6.472;2024-01-25T16:16:28;8.70;99.90
15364;DHT22;7781;49.690;6.472;2024-01-25T16:18:56;8.60;99.90